Albion, Idaho
Current Conditions -  °F | °C
As of 9:53 PM on Sunday 19 Oct 2014 (Local Time) from KBYI Reporting Station
Clear Clear  
Wind Chill: 50°   Ceiling: Unl
Heat Index: 50°   Visibility: 10mi
Dew Point: 38°   Wind: 3mph
Humidity: 63%   Direction: 170°S
Pressure: 29.97"   Gusts: NA
Location:  42.41°N, 113.58°W
Report Text: KBYI 200353Z AUTO 17003KT 10SM CLR 10/03 A2997 RMK AO2 SLP139 T01000033
Loading
Personal Weather Stations






























Interactive Weather Map
Tropical Storm Tracking
New forecast layout! Learn more

10-Day Weather Forecast

Advertisements
Track Severe Weather on mobile